Accueil
METAR-TAF:

METAR-TAF

Aéroports :

Culiacán, Mexique

latitude: 24-49N, longitude: 107-24W, altitude: 39 m

Observation

Le bulletin a été fait il y a 5 heures et 3 minutes, à 04:40 UTC
Vent calme
Température 15°C
Humidité 82%
Pression 1014 hPa
Visibilité: 16.1 km
Nuages épars à une hauteur de 25000 ft

METAR: MMCL 240440Z 00000KT 10SM SCT250 15/12 A2993 RMK 8/001 HZY

Heure: 02:43 (09:43 UTC)

Prévision

Le bulletin a été fait il y a 4 heures et 53 minutes, à 04:50 UTC
Prévision valable du 24 à 06 UTC au 25 à 06 UTC
Vent kt de nord
Visibilité: 10 km
Nuages épars à une hauteur de 25000 ft
A partir de 24 à 1800 UTC
Vent 10 kt de ouest/sud-ouest
Visibilité: 10 km
Nuages épars à une hauteur de 25000 ft
A partir de 25 à 0400 UTC
Vent 5 kt de ouest/sud-ouest
Visibilité: 10 km
Ciel clair

TAF: MMCL 240450Z 2406/2506 00000KT P6SM SCT250 FM241800 24010KT P6SM SCT250 FM250400 24005KT P6SM SKC

Observations et prévisions météorologiques de plus de 4000 aéroports (messages METAR et TAF).

Les stations disponibles sont représentées par des disques jaunes et rouges sur la carte.

Passer la souris dessus pour voir le nom de la station.

Cliquer dessus pour voir les observations et prévisions météorologiques.

Pour changer de carte: cliquez sur les boutons verts avec une croix noire pour zoomer, sur le bouton vert avec un tiret pour effectuer un zoom arrière, ou sur les flèches vertes pour les cartes adjacentes.


METAR-TAF: